sensor_id;sensor_type;location;lat;lon;timestamp;temperature;humidity
75368;DHT22;63954;51.948;5.888;2022-10-19T04:46:49;6.34;83.10
75368;DHT22;63954;51.948;5.888;2022-10-19T04:49:22;6.34;83.10
75368;DHT22;63954;51.948;5.888;2022-10-19T04:51:51;6.34;83.04
75368;DHT22;63954;51.948;5.888;2022-10-19T04:54:19;6.33;83.10
75368;DHT22;63954;51.948;5.888;2022-10-19T04:56:46;6.33;83.23
75368;DHT22;63954;51.948;5.888;2022-10-19T04:59:27;6.34;83.33
75368;DHT22;63954;51.948;5.888;2022-10-19T05:01:55;6.34;83.38
75368;DHT22;63954;51.948;5.888;2022-10-19T05:04:23;6.35;83.31
75368;DHT22;63954;51.948;5.888;2022-10-19T05:06:53;6.35;83.35
75368;DHT22;63954;51.948;5.888;2022-10-19T05:09:20;6.33;83.29
75368;DHT22;63954;51.948;5.888;2022-10-19T05:15:04;6.30;83.00
75368;DHT22;63954;51.948;5.888;2022-10-19T05:17:33;6.29;83.13
75368;DHT22;63954;51.948;5.888;2022-10-19T05:23:53;6.25;82.95
75368;DHT22;63954;51.948;5.888;2022-10-19T05:26:22;6.22;83.08
75368;DHT22;63954;51.948;5.888;2022-10-19T05:28:54;6.22;83.25
75368;DHT22;63954;51.948;5.888;2022-10-19T05:31:27;6.20;83.22
75368;DHT22;63954;51.948;5.888;2022-10-19T05:34:10;6.17;83.21
75368;DHT22;63954;51.948;5.888;2022-10-19T05:36:38;6.17;83.29
75368;DHT22;63954;51.948;5.888;2022-10-19T05:39:07;6.16;83.36
75368;DHT22;63954;51.948;5.888;2022-10-19T05:41:34;6.16;83.16
75368;DHT22;63954;51.948;5.888;2022-10-19T05:44:03;6.15;83.13
75368;DHT22;63954;51.948;5.888;2022-10-19T05:46:31;6.13;83.12
75368;DHT22;63954;51.948;5.888;2022-10-19T05:48:59;6.13;83.04
75368;DHT22;63954;51.948;5.888;2022-10-19T05:51:28;6.12;83.08
75368;DHT22;63954;51.948;5.888;2022-10-19T05:53:56;6.10;83.13
75368;DHT22;63954;51.948;5.888;2022-10-19T05:56:25;6.10;83.08
75368;DHT22;63954;51.948;5.888;2022-10-19T05:58:54;6.09;83.17
75368;DHT22;63954;51.948;5.888;2022-10-19T06:01:22;6.08;83.26
75368;DHT22;63954;51.948;5.888;2022-10-19T06:03:51;6.07;83.17
75368;DHT22;63954;51.948;5.888;2022-10-19T06:06:19;6.07;83.29
75368;DHT22;63954;51.948;5.888;2022-10-19T06:08:49;6.07;83.27
75368;DHT22;63954;51.948;5.888;2022-10-19T06:11:18;6.09;83.32
75368;DHT22;63954;51.948;5.888;2022-10-19T06:13:47;6.10;83.37
75368;DHT22;63954;51.948;5.888;2022-10-19T06:16:17;6.11;83.42
75368;DHT22;63954;51.948;5.888;2022-10-19T06:23:01;6.15;83.73
75368;DHT22;63954;51.948;5.888;2022-10-19T06:25:35;6.22;84.42
75368;DHT22;63954;51.948;5.888;2022-10-19T06:28:04;6.29;84.65
75368;DHT22;63954;51.948;5.888;2022-10-19T06:30:32;6.35;84.63
75368;DHT22;63954;51.948;5.888;2022-10-19T07:00:52;6.72;85.76
75368;DHT22;63954;51.948;5.888;2022-10-19T07:03:19;6.82;86.16
75368;DHT22;63954;51.948;5.888;2022-10-19T07:05:52;6.93;86.41
75368;DHT22;63954;51.948;5.888;2022-10-19T07:08:19;7.01;86.51
75368;DHT22;63954;51.948;5.888;2022-10-19T07:10:49;7.11;86.70
75368;DHT22;63954;51.948;5.888;2022-10-19T07:13:16;7.20;87.17
75368;DHT22;63954;51.948;5.888;2022-10-19T07:15:45;7.32;87.41
75368;DHT22;63954;51.948;5.888;2022-10-19T07:18:12;7.47;87.93
75368;DHT22;63954;51.948;5.888;2022-10-19T07:20:39;7.60;88.12
75368;DHT22;63954;51.948;5.888;2022-10-19T07:23:10;7.74;88.25
75368;DHT22;63954;51.948;5.888;2022-10-19T07:25:37;7.89;88.72
75368;DHT22;63954;51.948;5.888;2022-10-19T07:28:05;8.01;88.70
75368;DHT22;63954;51.948;5.888;2022-10-19T07:30:32;8.14;88.78
75368;DHT22;63954;51.948;5.888;2022-10-19T07:33:01;8.27;88.40
75368;DHT22;63954;51.948;5.888;2022-10-19T07:35:29;8.33;88.09
75368;DHT22;63954;51.948;5.888;2022-10-19T07:38:00;8.38;87.85
75368;DHT22;63954;51.948;5.888;2022-10-19T07:40:27;8.46;87.77
75368;DHT22;63954;51.948;5.888;2022-10-19T07:42:55;8.51;87.71
75368;DHT22;63954;51.948;5.888;2022-10-19T07:45:22;8.59;87.99
75368;DHT22;63954;51.948;5.888;2022-10-19T07:47:49;8.67;87.71
75368;DHT22;63954;51.948;5.888;2022-10-19T07:50:21;8.74;87.64
75368;DHT22;63954;51.948;5.888;2022-10-19T07:52:58;8.81;87.57
75368;DHT22;63954;51.948;5.888;2022-10-19T07:55:28;8.90;87.60
75368;DHT22;63954;51.948;5.888;2022-10-19T07:58:01;8.98;87.45
75368;DHT22;63954;51.948;5.888;2022-10-19T08:09:45;9.37;86.83
75368;DHT22;63954;51.948;5.888;2022-10-19T08:12:25;9.48;86.75
75368;DHT22;63954;51.948;5.888;2022-10-19T08:14:55;9.54;86.69
75368;DHT22;63954;51.948;5.888;2022-10-19T08:57:41;10.68;83.57
75368;DHT22;63954;51.948;5.888;2022-10-19T09:00:14;10.79;83.76
75368;DHT22;63954;51.948;5.888;2022-10-19T09:57:03;12.87;79.84
75368;DHT22;63954;51.948;5.888;2022-10-19T10:50:45;13.98;69.37
75368;DHT22;63954;51.948;5.888;2022-10-19T11:30:45;14.18;62.84
75368;DHT22;63954;51.948;5.888;2022-10-19T11:33:37;14.12;63.49
75368;DHT22;63954;51.948;5.888;2022-10-19T11:36:21;14.15;64.66
75368;DHT22;63954;51.948;5.888;2022-10-19T11:42:55;14.20;64.40
75368;DHT22;63954;51.948;5.888;2022-10-19T11:46:07;14.23;64.47
75368;DHT22;63954;51.948;5.888;2022-10-19T11:52:38;14.34;63.81
75368;DHT22;63954;51.948;5.888;2022-10-19T11:55:38;14.37;62.27
75368;DHT22;63954;51.948;5.888;2022-10-19T11:58:32;14.40;63.73
75368;DHT22;63954;51.948;5.888;2022-10-19T12:01:51;14.42;62.58
75368;DHT22;63954;51.948;5.888;2022-10-19T12:04:45;14.43;62.77
75368;DHT22;63954;51.948;5.888;2022-10-19T12:08:03;14.45;62.34
75368;DHT22;63954;51.948;5.888;2022-10-19T12:10:51;14.42;62.31
75368;DHT22;63954;51.948;5.888;2022-10-19T12:13:31;14.40;61.79
75368;DHT22;63954;51.948;5.888;2022-10-19T12:16:15;14.44;62.72
75368;DHT22;63954;51.948;5.888;2022-10-19T12:18:50;14.43;61.98
75368;DHT22;63954;51.948;5.888;2022-10-19T12:21:23;14.41;61.98
75368;DHT22;63954;51.948;5.888;2022-10-19T12:23:52;14.43;62.31
75368;DHT22;63954;51.948;5.888;2022-10-19T12:26:21;14.44;62.63
75368;DHT22;63954;51.948;5.888;2022-10-19T12:28:53;14.47;62.76
75368;DHT22;63954;51.948;5.888;2022-10-19T12:31:30;14.51;62.98
75368;DHT22;63954;51.948;5.888;2022-10-19T12:41:46;14.55;60.36
75368;DHT22;63954;51.948;5.888;2022-10-19T12:44:49;14.55;61.12
75368;DHT22;63954;51.948;5.888;2022-10-19T12:47:24;14.56;62.02
75368;DHT22;63954;51.948;5.888;2022-10-19T13:02:23;14.50;61.79
75368;DHT22;63954;51.948;5.888;2022-10-19T13:04:59;14.51;61.18
75368;DHT22;63954;51.948;5.888;2022-10-19T13:17:05;14.49;59.77
75368;DHT22;63954;51.948;5.888;2022-10-19T13:19:39;14.47;60.38
75368;DHT22;63954;51.948;5.888;2022-10-19T13:25:31;14.44;60.24
75368;DHT22;63954;51.948;5.888;2022-10-19T13:28:17;14.44;61.12
75368;DHT22;63954;51.948;5.888;2022-10-19T13:37:10;14.40;61.57
75368;DHT22;63954;51.948;5.888;2022-10-19T13:40:23;14.39;61.48
75368;DHT22;63954;51.948;5.888;2022-10-19T13:43:37;14.37;61.79
75368;DHT22;63954;51.948;5.888;2022-10-19T13:46:48;14.36;61.87
75368;DHT22;63954;51.948;5.888;2022-10-19T13:53:31;14.35;61.12
75368;DHT22;63954;51.948;5.888;2022-10-19T13:56:53;14.32;61.93
75368;DHT22;63954;51.948;5.888;2022-10-19T14:03:43;14.25;62.24
75368;DHT22;63954;51.948;5.888;2022-10-19T14:06:58;14.26;62.23
75368;DHT22;63954;51.948;5.888;2022-10-19T14:10:25;14.24;62.17
75368;DHT22;63954;51.948;5.888;2022-10-19T14:13:21;14.21;62.07
75368;DHT22;63954;51.948;5.888;2022-10-19T14:16:24;14.22;62.29
75368;DHT22;63954;51.948;5.888;2022-10-19T14:22:45;14.18;61.83
75368;DHT22;63954;51.948;5.888;2022-10-19T14:58:15;13.85;64.03
75368;DHT22;63954;51.948;5.888;2022-10-19T15:00:48;13.82;64.11
75368;DHT22;63954;51.948;5.888;2022-10-19T15:03:31;13.82;64.07
75368;DHT22;63954;51.948;5.888;2022-10-19T15:06:21;13.81;64.26
75368;DHT22;63954;51.948;5.888;2022-10-19T15:09:26;13.82;64.07
75368;DHT22;63954;51.948;5.888;2022-10-19T15:15:52;13.86;63.90
75368;DHT22;63954;51.948;5.888;2022-10-19T15:18:22;13.89;63.82
75368;DHT22;63954;51.948;5.888;2022-10-19T15:21:16;13.92;63.65
75368;DHT22;63954;51.948;5.888;2022-10-19T15:24:14;13.91;63.95
75368;DHT22;63954;51.948;5.888;2022-10-19T15:33:54;13.97;63.79
75368;DHT22;63954;51.948;5.888;2022-10-19T15:36:23;13.99;63.73
75368;DHT22;63954;51.948;5.888;2022-10-19T15:38:58;13.96;63.82
75368;DHT22;63954;51.948;5.888;2022-10-19T15:41:35;13.96;64.24
75368;DHT22;63954;51.948;5.888;2022-10-19T15:44:04;13.91;64.46
75368;DHT22;63954;51.948;5.888;2022-10-19T15:49:51;13.83;64.64
75368;DHT22;63954;51.948;5.888;2022-10-19T15:52:57;13.75;64.85
75368;DHT22;63954;51.948;5.888;2022-10-19T15:55:50;13.68;65.09
75368;DHT22;63954;51.948;5.888;2022-10-19T15:58:58;13.58;65.24
75368;DHT22;63954;51.948;5.888;2022-10-19T16:01:36;13.53;65.64
75368;DHT22;63954;51.948;5.888;2022-10-19T16:04:18;13.46;65.88
75368;DHT22;63954;51.948;5.888;2022-10-19T16:06:57;13.38;66.01
75368;DHT22;63954;51.948;5.888;2022-10-19T16:09:26;13.32;66.36
75368;DHT22;63954;51.948;5.888;2022-10-19T16:12:08;13.25;66.47
75368;DHT22;63954;51.948;5.888;2022-10-19T16:21:17;13.04;67.34
75368;DHT22;63954;51.948;5.888;2022-10-19T16:24:21;12.95;67.50
75368;DHT22;63954;51.948;5.888;2022-10-19T16:27:07;12.88;67.67
75368;DHT22;63954;51.948;5.888;2022-10-19T16:29:40;12.80;67.91
75368;DHT22;63954;51.948;5.888;2022-10-19T16:44:14;12.52;68.68
75368;DHT22;63954;51.948;5.888;2022-10-19T16:46:51;12.48;68.81
75368;DHT22;63954;51.948;5.888;2022-10-19T16:52:40;12.43;68.99
75368;DHT22;63954;51.948;5.888;2022-10-19T16:55:36;12.38;69.26
75368;DHT22;63954;51.948;5.888;2022-10-19T17:04:24;12.27;69.53
75368;DHT22;63954;51.948;5.888;2022-10-19T17:27:52;12.14;69.43
75368;DHT22;63954;51.948;5.888;2022-10-19T17:30:41;12.13;69.52
75368;DHT22;63954;51.948;5.888;2022-10-19T17:36:22;12.08;69.62
75368;DHT22;63954;51.948;5.888;2022-10-19T17:39:19;12.04;69.52
75368;DHT22;63954;51.948;5.888;2022-10-19T17:41:53;12.03;69.46
75368;DHT22;63954;51.948;5.888;2022-10-19T17:47:53;11.97;69.41
75368;DHT22;63954;51.948;5.888;2022-10-19T17:50:21;11.98;69.36
75368;DHT22;63954;51.948;5.888;2022-10-19T17:52:55;11.92;69.40
75368;DHT22;63954;51.948;5.888;2022-10-19T17:55:45;11.90;69.50
75368;DHT22;63954;51.948;5.888;2022-10-19T17:58:18;11.89;69.63
75368;DHT22;63954;51.948;5.888;2022-10-19T18:00:53;11.86;69.77
75368;DHT22;63954;51.948;5.888;2022-10-19T18:03:37;11.76;69.94
75368;DHT22;63954;51.948;5.888;2022-10-19T18:06:07;11.78;69.89
75368;DHT22;63954;51.948;5.888;2022-10-19T18:08:37;11.76;69.93
75368;DHT22;63954;51.948;5.888;2022-10-19T18:11:07;11.73;70.10
75368;DHT22;63954;51.948;5.888;2022-10-19T18:13:39;11.68;70.19
75368;DHT22;63954;51.948;5.888;2022-10-19T18:16:11;11.64;70.24
75368;DHT22;63954;51.948;5.888;2022-10-19T18:18:44;11.63;70.23
75368;DHT22;63954;51.948;5.888;2022-10-19T18:21:25;11.60;70.28
75368;DHT22;63954;51.948;5.888;2022-10-19T19:06:02;10.98;71.96
75368;DHT22;63954;51.948;5.888;2022-10-19T19:16:27;10.87;72.26
75368;DHT22;63954;51.948;5.888;2022-10-19T20:42:36;9.89;75.63
75368;DHT22;63954;51.948;5.888;2022-10-19T20:45:42;9.88;75.80
75368;DHT22;63954;51.948;5.888;2022-10-19T20:48:19;9.86;75.50
75368;DHT22;63954;51.948;5.888;2022-10-19T20:51:25;9.82;75.80
75368;DHT22;63954;51.948;5.888;2022-10-19T22:08:45;9.25;78.51
75368;DHT22;63954;51.948;5.888;2022-10-19T22:38:55;9.04;78.91
75368;DHT22;63954;51.948;5.888;2022-10-19T22:41:53;9.03;78.82
75368;DHT22;63954;51.948;5.888;2022-10-19T22:45:26;9.00;79.21
75368;DHT22;63954;51.948;5.888;2022-10-19T23:13:01;8.85;79.75
75368;DHT22;63954;51.948;5.888;2022-10-19T23:37:08;8.75;79.85
75368;DHT22;63954;51.948;5.888;2022-10-19T23:39:46;8.74;79.88
75368;DHT22;63954;51.948;5.888;2022-10-19T23:42:18;8.74;79.83
75368;DHT22;63954;51.948;5.888;2022-10-19T23:44:48;8.74;79.75
75368;DHT22;63954;51.948;5.888;2022-10-19T23:47:26;8.75;79.86
75368;DHT22;63954;51.948;5.888;2022-10-19T23:49:59;8.73;79.91
75368;DHT22;63954;51.948;5.888;2022-10-19T23:52:47;8.72;80.00
75368;DHT22;63954;51.948;5.888;2022-10-19T23:55:16;8.68;80.30
75368;DHT22;63954;51.948;5.888;2022-10-19T23:58:05;8.72;79.81
